Dirección General De Aeronáutica Civil

Dirección Meteorológica de Chile - Servicios Climáticos

Informe General de Control de Calidad de la Estación

Listado de niveles de control de calidad para algunos parámetros
Estación Melipilla Mallarauco (330177)
Fecha de Revisión de los datos :

Elementos

Registros Niveles de Control Total
Nivel 0 Nivel 1 Nivel 2 Nivel 3 Errores Porcentaje
01 Temperatura del Aire Seco 111.109 0 . 93 0.08 % 0 . 0 . 93 0.08 %
02 Temperatura de Rocío 111.107 0 . 0 . 0 . 0 . 0 0.00 %
03 Humedad Relativa del Aire 111.137 0 . 0 . 0 . 0 . 0 0.00 %
04 Temperatura Máxima PM 674 0 . 0 . 0 . 0 . 0 0.00 %
05 Temperatura Mínima AM 661 0 . 0 . 0 . 0 . 0 0.00 %
06 Agua Caida, Acumulada 6 Horas 20.564 0 . 0 . 0 . 0 . 0 0.00 %
07 Presión Atm. a Nivel de Estación (QFE) 107.980 0 . 0 . 0 . 0 . 0 0.00 %
08 Presión Atm. a Nivel Medio del Mar (QFF) 15.829 0 . 0 . 0 . 0 . 0 0.00 %
09 Presión Atm. Estándar OACI (QNH) 15.829 0 . 0 . 0 . 0 . 0 0.00 %

Totales

494.890 . 0.0000 % . 0.0188 % . 0.0000 % . 0.0000 % 93 0.0188 %

Detalle de Errores Encontrados

Nivel Fecha del Dato Descripción Información Error Fecha Ingreso
1 2014-05-12 08:00:00 Ts debe ser mayor o igual a Td Ts=8.5 - Td=8.6 2023-10-27 09:22:00
1 2014-06-01 14:00:00 Ts debe ser mayor o igual a Td Ts=7.7 - Td=7.8 2023-10-27 09:23:00
1 2014-06-01 16:00:00 Ts debe ser mayor o igual a Td Ts=10.6 - Td=10.7 2023-10-27 09:23:00
1 2014-06-23 12:00:00 Ts debe ser mayor o igual a Td Ts=6.7 - Td=6.8 2023-10-27 09:23:00
1 2014-06-24 14:00:00 Ts debe ser mayor o igual a Td Ts=7.0 - Td=7.1 2023-10-27 09:23:00
1 2014-07-05 08:00:00 Ts debe ser mayor o igual a Td Ts=6.8 - Td=6.9 2023-10-27 09:23:00
1 2014-07-05 12:00:00 Ts debe ser mayor o igual a Td Ts=6.8 - Td=6.9 2023-10-27 09:23:00
1 2014-07-10 16:00:00 Ts debe ser mayor o igual a Td Ts=7.0 - Td=7.1 2023-10-27 09:23:00
1 2014-08-02 12:00:00 Ts debe ser mayor o igual a Td Ts=10.6 - Td=10.7 2023-10-27 09:23:00
1 2014-09-03 03:00:00 Ts debe ser mayor o igual a Td Ts=10.6 - Td=10.7 2023-10-27 09:24:00
1 2014-09-14 11:00:00 Ts debe ser mayor o igual a Td Ts=7.1 - Td=7.2 2023-10-27 09:24:00
1 2014-09-17 12:00:00 Ts debe ser mayor o igual a Td Ts=10.4 - Td=10.5 2023-10-27 09:24:00
1 2014-09-21 09:00:00 Ts debe ser mayor o igual a Td Ts=10.5 - Td=10.6 2023-10-27 09:24:00
1 2014-09-21 10:00:00 Ts debe ser mayor o igual a Td Ts=10.4 - Td=10.5 2023-10-27 09:24:00
1 2015-06-07 11:00:00 Ts debe ser mayor o igual a Td Ts=9.3 - Td=9.4 2023-10-27 09:28:00
1 2015-07-13 12:00:00 Ts debe ser mayor o igual a Td Ts=7.1 - Td=7.2 2023-10-27 09:29:00
1 2015-07-26 14:00:00 Ts debe ser mayor o igual a Td Ts=7.5 - Td=7.6 2023-10-27 09:29:00
1 2015-07-26 16:00:00 Ts debe ser mayor o igual a Td Ts=8.4 - Td=8.5 2023-10-27 09:29:00
1 2015-07-28 06:00:00 Ts debe ser mayor o igual a Td Ts=10.3 - Td=10.4 2023-10-27 09:29:00
1 2015-07-28 09:00:00 Ts debe ser mayor o igual a Td Ts=8.7 - Td=8.8 2023-10-27 09:29:00
1 2015-07-28 14:00:00 Ts debe ser mayor o igual a Td Ts=11.6 - Td=11.7 2023-10-27 09:29:00
1 2015-07-29 03:00:00 Ts debe ser mayor o igual a Td Ts=8.5 - Td=8.6 2023-10-27 09:29:00
1 2015-07-29 04:00:00 Ts debe ser mayor o igual a Td Ts=7.7 - Td=7.8 2023-10-27 09:29:00
1 2015-07-29 06:00:00 Ts debe ser mayor o igual a Td Ts=7.1 - Td=7.2 2023-10-27 09:29:00
1 2015-08-03 05:00:00 Ts debe ser mayor o igual a Td Ts=8.5 - Td=8.6 2023-10-27 09:29:00
1 2015-08-03 06:00:00 Ts debe ser mayor o igual a Td Ts=7.4 - Td=7.5 2023-10-27 09:29:00
1 2015-08-03 08:00:00 Ts debe ser mayor o igual a Td Ts=7.4 - Td=7.5 2023-10-27 09:29:00
1 2015-09-05 12:00:00 Ts debe ser mayor o igual a Td Ts=8.7 - Td=8.8 2023-10-27 09:30:00
1 2015-09-08 06:00:00 Ts debe ser mayor o igual a Td Ts=8.5 - Td=8.6 2023-10-27 09:30:00
1 2015-09-10 10:00:00 Ts debe ser mayor o igual a Td Ts=8.2 - Td=8.3 2023-10-27 09:30:00
1 2016-05-07 13:00:00 Ts debe ser mayor o igual a Td Ts=11.4 - Td=11.5 2023-10-27 09:34:00
1 2016-05-26 09:00:00 Ts debe ser mayor o igual a Td Ts=8.1 - Td=8.2 2023-10-27 09:34:00
1 2016-05-26 18:00:00 Ts debe ser mayor o igual a Td Ts=13.2 - Td=13.3 2023-10-27 09:34:00
1 2016-05-27 09:00:00 Ts debe ser mayor o igual a Td Ts=10.6 - Td=10.7 2023-10-27 09:34:00
1 2016-05-28 04:00:00 Ts debe ser mayor o igual a Td Ts=9.1 - Td=9.2 2023-10-27 09:34:00
1 2016-05-28 07:00:00 Ts debe ser mayor o igual a Td Ts=10.7 - Td=10.8 2023-10-27 09:34:00
1 2016-05-30 07:00:00 Ts debe ser mayor o igual a Td Ts=10.3 - Td=10.4 2023-10-27 09:34:00
1 2016-06-02 11:00:00 Ts debe ser mayor o igual a Td Ts=7.1 - Td=7.2 2023-10-27 09:34:00
1 2016-06-04 12:00:00 Ts debe ser mayor o igual a Td Ts=5.6 - Td=5.7 2023-10-27 09:34:00
1 2016-06-05 08:00:00 Ts debe ser mayor o igual a Td Ts=4.8 - Td=4.9 2023-10-27 09:34:00
1 2016-08-04 12:00:00 Ts debe ser mayor o igual a Td Ts=4.8 - Td=4.9 2023-10-27 09:35:00
1 2016-08-05 13:00:00 Ts debe ser mayor o igual a Td Ts=7.7 - Td=7.8 2023-10-27 09:35:00
1 2016-08-05 14:00:00 Ts debe ser mayor o igual a Td Ts=7.1 - Td=7.2 2023-10-27 09:35:00
1 2017-06-12 14:00:00 Ts debe ser mayor o igual a Td Ts=7.2 - Td=7.3 2023-10-27 09:39:00
1 2017-06-14 09:00:00 Ts debe ser mayor o igual a Td Ts=8.9 - Td=9.0 2023-10-27 09:39:00
1 2017-06-14 10:00:00 Ts debe ser mayor o igual a Td Ts=8.9 - Td=9.0 2023-10-27 09:39:00
1 2017-06-14 11:00:00 Ts debe ser mayor o igual a Td Ts=9.0 - Td=9.1 2023-10-27 09:39:00
1 2017-06-23 06:00:00 Ts debe ser mayor o igual a Td Ts=10.4 - Td=10.5 2023-10-27 09:39:00
1 2017-06-23 08:00:00 Ts debe ser mayor o igual a Td Ts=10.6 - Td=10.7 2023-10-27 09:39:00
1 2017-06-23 10:00:00 Ts debe ser mayor o igual a Td Ts=10.8 - Td=10.9 2023-10-27 09:39:00
1 2017-06-23 14:00:00 Ts debe ser mayor o igual a Td Ts=11.8 - Td=11.9 2023-10-27 09:39:00
1 2017-06-24 06:00:00 Ts debe ser mayor o igual a Td Ts=10.8 - Td=10.9 2023-10-27 09:39:00
1 2017-06-28 08:00:00 Ts debe ser mayor o igual a Td Ts=7.0 - Td=7.1 2023-10-27 09:39:00
1 2017-06-28 13:00:00 Ts debe ser mayor o igual a Td Ts=8.7 - Td=8.8 2023-10-27 09:39:00
1 2017-07-24 12:00:00 Ts debe ser mayor o igual a Td Ts=9.1 - Td=9.2 2023-10-27 09:40:00
1 2017-07-25 16:00:00 Ts debe ser mayor o igual a Td Ts=7.7 - Td=7.8 2023-10-27 09:40:00
1 2018-06-20 17:00:00 Ts debe ser mayor o igual a Td Ts=7.4 - Td=7.5 2023-10-27 09:45:00
1 2018-06-27 13:00:00 Ts debe ser mayor o igual a Td Ts=7.3 - Td=7.4 2023-10-27 09:45:00
1 2018-06-30 11:00:00 Ts debe ser mayor o igual a Td Ts=6.9 - Td=7.0 2023-10-27 09:45:00
1 2018-06-30 13:00:00 Ts debe ser mayor o igual a Td Ts=7.6 - Td=7.7 2023-10-27 09:45:00
1 2018-06-30 17:00:00 Ts debe ser mayor o igual a Td Ts=9.4 - Td=9.5 2023-10-27 09:45:00
1 2018-07-03 10:00:00 Ts debe ser mayor o igual a Td Ts=7.5 - Td=7.6 2023-10-27 09:45:00
1 2018-07-03 11:00:00 Ts debe ser mayor o igual a Td Ts=8.1 - Td=8.2 2023-10-27 09:45:00
1 2018-07-03 12:00:00 Ts debe ser mayor o igual a Td Ts=7.7 - Td=7.8 2023-10-27 09:45:00
1 2018-07-07 05:00:00 Ts debe ser mayor o igual a Td Ts=7.7 - Td=7.8 2023-10-27 09:45:00
1 2018-07-07 11:00:00 Ts debe ser mayor o igual a Td Ts=4.8 - Td=4.9 2023-10-27 09:45:00
1 2018-07-07 22:00:00 Ts debe ser mayor o igual a Td Ts=10.4 - Td=10.5 2023-10-27 09:45:00
1 2018-07-08 04:00:00 Ts debe ser mayor o igual a Td Ts=8.3 - Td=8.4 2023-10-27 09:45:00
1 2018-07-08 05:00:00 Ts debe ser mayor o igual a Td Ts=8.2 - Td=8.3 2023-10-27 09:45:00
1 2018-07-08 14:00:00 Ts debe ser mayor o igual a Td Ts=9.1 - Td=9.2 2023-10-27 09:45:00
1 2018-07-09 06:00:00 Ts debe ser mayor o igual a Td Ts=7.1 - Td=7.2 2023-10-27 09:45:00
1 2018-07-10 07:00:00 Ts debe ser mayor o igual a Td Ts=9.0 - Td=9.1 2023-10-27 09:45:00
1 2018-07-14 13:00:00 Ts debe ser mayor o igual a Td Ts=8.1 - Td=8.2 2023-10-27 09:45:00
1 2018-07-15 05:00:00 Ts debe ser mayor o igual a Td Ts=9.0 - Td=9.1 2023-10-27 09:45:00
1 2018-09-06 13:00:00 Ts debe ser mayor o igual a Td Ts=7.5 - Td=7.6 2023-10-27 09:46:00
1 2018-09-19 10:00:00 Ts debe ser mayor o igual a Td Ts=4.8 - Td=4.9 2023-10-27 09:46:00
1 2019-06-30 06:00:00 HR (Humedad Relativa) es igual a 100% y Ts <> Td 3.3 - 0.0 2023-10-27 09:51:00
1 2019-06-30 07:00:00 HR (Humedad Relativa) es igual a 100% y Ts <> Td 3.1 - 0.0 2023-10-27 09:51:00
1 2019-06-30 08:00:00 HR (Humedad Relativa) es igual a 100% y Ts <> Td 5.8 - 0.0 2023-10-27 09:51:00
1 2019-06-30 10:00:00 HR (Humedad Relativa) es igual a 100% y Ts <> Td 6.5 - 0.0 2023-10-27 09:51:00
1 2019-06-30 11:00:00 HR (Humedad Relativa) es igual a 100% y Ts <> Td 5.9 - 0.0 2023-10-27 09:51:00
1 2019-06-30 12:00:00 HR (Humedad Relativa) es igual a 100% y Ts <> Td 5.0 - 0.0 2023-10-27 09:51:00
1 2019-06-30 13:00:00 HR (Humedad Relativa) es igual a 100% y Ts <> Td 6.3 - 0.0 2023-10-27 09:51:00
1 2019-07-11 03:00:00 HR (Humedad Relativa) es igual a 100% y Ts <> Td 4.8 - 0.0 2023-10-27 09:51:00
1 2019-07-11 04:00:00 HR (Humedad Relativa) es igual a 100% y Ts <> Td 5.2 - 0.0 2023-10-27 09:51:00
1 2019-07-13 08:00:00 HR (Humedad Relativa) es igual a 100% y Ts <> Td 2.0 - 0.0 2023-10-27 09:51:00
1 2019-07-13 09:00:00 HR (Humedad Relativa) es igual a 100% y Ts <> Td 1.6 - 0.0 2023-10-27 09:51:00
1 2019-07-13 10:00:00 HR (Humedad Relativa) es igual a 100% y Ts <> Td 1.7 - 0.0 2023-10-27 09:51:00
1 2019-07-13 11:00:00 HR (Humedad Relativa) es igual a 100% y Ts <> Td 0.8 - 0.0 2023-10-27 09:51:00
1 2019-07-13 12:00:00 HR (Humedad Relativa) es igual a 100% y Ts <> Td 0.4 - 0.0 2023-10-27 09:51:00
1 2019-07-13 13:00:00 HR (Humedad Relativa) es igual a 100% y Ts <> Td 2.5 - 0.0 2023-10-27 09:51:00
1 2019-07-13 15:00:00 HR (Humedad Relativa) es igual a 100% y Ts <> Td 5.5 - 0.0 2023-10-27 09:51:00
1 2019-07-13 16:00:00 HR (Humedad Relativa) es igual a 100% y Ts <> Td 7.8 - 0.0 2023-10-27 09:51:00
Errores del Nivel 93
Informe generado el 05-03-2024 11:05
Requerimiento: RE6001